Time;durP1;ratioP1;P1;durP2;ratioP2;P2;SDS_P1;SDS_P2;PMS_P1;PMS_P2;Temp;Humidity;BMP_temperature;BMP_pressure;BME280_temperature;BME280_humidity;BME280_pressure;Samples;Min_cycle;Max_cycle;Signal;HPM_P1;HPM_P2
2022/10/31 00:01:01;;;;;;;63.20;43.65;;;9.50;99.90;;;;;;4972478;28;20093;-75
2022/10/31 00:03:28;;;;;;;69.95;46.13;;;9.50;99.90;;;;;;4955180;28;20047;-74
2022/10/31 00:05:57;;;;;;;67.90;45.50;;;9.40;99.90;;;;;;4973556;28;20541;-75
2022/10/31 00:08:25;;;;;;;67.38;45.20;;;9.40;99.90;;;;;;4972560;28;20349;-75
2022/10/31 00:10:52;;;;;;;65.07;44.40;;;9.40;99.90;;;;;;4972097;28;20120;-75
2022/10/31 00:13:20;;;;;;;65.65;42.17;;;9.30;99.90;;;;;;4973633;28;20039;-76
2022/10/31 00:15:47;;;;;;;63.00;42.00;;;9.30;99.90;;;;;;4972804;28;20081;-76
2022/10/31 00:18:15;;;;;;;61.10;40.70;;;9.30;99.90;;;;;;4972760;28;20043;-76
2022/10/31 00:20:42;;;;;;;66.53;45.25;;;9.30;99.90;;;;;;4972248;28;20047;-76
2022/10/31 00:23:12;;;;;;;70.50;48.97;;;9.30;99.90;;;;;;4973690;28;20503;-76
2022/10/31 00:25:40;;;;;;;71.10;48.47;;;9.30;99.90;;;;;;4973770;28;20065;-75
2022/10/31 00:28:09;;;;;;;75.28;49.42;;;9.30;99.90;;;;;;4973143;28;20050;-77
2022/10/31 00:30:37;;;;;;;72.32;46.85;;;9.30;99.90;;;;;;4975763;28;20039;-76
2022/10/31 00:33:05;;;;;;;59.38;42.28;;;9.20;99.90;;;;;;4957140;28;20055;-75
2022/10/31 00:35:33;;;;;;;67.90;46.13;;;9.20;99.90;;;;;;4959233;28;20062;-76
2022/10/31 00:38:01;;;;;;;81.40;51.35;;;9.20;99.90;;;;;;4976453;28;20031;-74
2022/10/31 00:40:30;;;;;;;76.90;50.13;;;9.20;99.90;;;;;;4975596;28;20046;-75
2022/10/31 00:42:58;;;;;;;72.40;46.05;;;9.10;99.90;;;;;;4976675;28;20495;-75
2022/10/31 00:45:26;;;;;;;63.03;43.67;;;9.10;99.90;;;;;;4976820;28;20539;-75
2022/10/31 00:47:54;;;;;;;62.85;42.47;;;9.10;99.90;;;;;;4977648;28;20053;-75
2022/10/31 00:50:22;;;;;;;64.60;44.10;;;9.20;99.90;;;;;;4976964;28;20034;-76
2022/10/31 00:52:49;;;;;;;66.28;45.15;;;9.10;99.90;;;;;;4976133;28;20484;-76
2022/10/31 00:55:17;;;;;;;70.63;47.30;;;9.10;99.90;;;;;;4958824;28;20093;-76
2022/10/31 00:57:49;;;;;;;71.43;50.40;;;9.00;99.90;;;;;;4975887;28;20047;-76
2022/10/31 01:00:17;;;;;;;71.50;48.50;;;9.00;99.90;;;;;;4957389;28;20043;-74
2022/10/31 01:02:44;;;;;;;72.25;49.90;;;8.90;99.90;;;;;;4957545;28;20046;-75
2022/10/31 01:05:12;;;;;;;72.65;47.60;;;8.90;99.90;;;;;;4958378;28;20050;-76
2022/10/31 01:07:40;;;;;;;73.63;46.88;;;8.90;99.90;;;;;;4973056;28;20456;-76
2022/10/31 01:10:10;;;;;;;69.30;45.40;;;8.90;99.90;;;;;;4974896;28;20031;-75
2022/10/31 01:12:38;;;;;;;68.30;44.47;;;9.00;99.90;;;;;;4958092;28;20513;-75
2022/10/31 01:15:09;;;;;;;64.20;43.67;;;8.90;99.90;;;;;;4957845;28;20414;-76
2022/10/31 01:17:37;;;;;;;64.38;42.55;;;8.90;99.90;;;;;;4975529;28;20035;-76
2022/10/31 01:20:05;;;;;;;61.30;41.45;;;8.90;99.90;;;;;;4974373;28;20479;-76
2022/10/31 01:22:32;;;;;;;65.88;42.75;;;8.80;99.90;;;;;;4975720;28;20098;-76
2022/10/31 01:25:01;;;;;;;66.28;41.15;;;8.80;99.90;;;;;;4976857;28;20038;-76
2022/10/31 01:27:28;;;;;;;58.80;41.72;;;8.80;99.90;;;;;;4970497;28;20047;-76
2022/10/31 01:29:56;;;;;;;61.45;41.97;;;8.80;99.90;;;;;;4976300;28;20051;-75
2022/10/31 01:32:25;;;;;;;62.28;40.55;;;8.80;99.90;;;;;;4957833;28;20127;-77
2022/10/31 01:34:52;;;;;;;64.78;42.80;;;8.80;99.90;;;;;;4957493;28;20491;-75
2022/10/31 01:37:20;;;;;;;68.10;43.42;;;8.80;99.90;;;;;;4975244;28;20082;-76
2022/10/31 01:39:49;;;;;;;63.65;42.33;;;8.80;99.90;;;;;;4974770;28;20035;-75
2022/10/31 01:42:19;;;;;;;68.88;41.95;;;8.70;99.90;;;;;;4974741;28;20307;-75
2022/10/31 01:44:55;;;;;;;62.05;40.15;;;8.70;99.90;;;;;;4973821;28;20058;-75
2022/10/31 01:47:33;;;;;;;69.35;41.10;;;8.70;99.90;;;;;;4969518;28;20043;-76
2022/10/31 01:50:04;;;;;;;64.38;43.80;;;8.70;99.90;;;;;;4972035;28;20047;-76
2022/10/31 01:52:34;;;;;;;66.97;44.40;;;8.70;99.90;;;;;;4974828;28;20035;-74
2022/10/31 01:55:06;;;;;;;67.78;44.10;;;8.70;99.90;;;;;;4957480;28;20043;-77
2022/10/31 01:57:36;;;;;;;61.10;42.25;;;8.60;99.90;;;;;;4957357;28;20050;-75
2022/10/31 02:00:09;;;;;;;61.03;39.55;;;8.70;99.90;;;;;;4974534;28;20038;-79
2022/10/31 02:02:45;;;;;;;59.63;41.30;;;8.60;99.90;;;;;;4975265;28;20395;-76
2022/10/31 02:05:17;;;;;;;58.17;37.30;;;8.60;99.90;;;;;;4974558;28;20039;-75
2022/10/31 02:07:49;;;;;;;56.25;36.03;;;8.60;99.90;;;;;;4974033;28;20155;-76
2022/10/31 02:10:18;;;;;;;54.30;35.83;;;8.50;99.90;;;;;;4973628;28;20105;-77
2022/10/31 02:12:45;;;;;;;56.15;37.78;;;8.50;99.90;;;;;;4956878;28;20047;-76
2022/10/31 02:15:13;;;;;;;56.88;38.30;;;8.50;99.90;;;;;;4948887;29;20570;-76
2022/10/31 02:17:45;;;;;;;53.20;37.08;;;8.50;99.90;;;;;;4934463;29;20051;-76
2022/10/31 02:20:17;;;;;;;55.25;36.35;;;8.50;99.90;;;;;;4933646;29;20055;-75
2022/10/31 02:23:10;;;;;;;54.78;37.65;;;8.40;99.90;;;;;;4934589;29;20099;-75
2022/10/31 02:25:55;;;;;;;53.42;35.50;;;8.40;99.90;;;;;;4934328;29;20062;-78
2022/10/31 02:28:47;;;;;;;59.47;34.17;;;8.40;99.90;;;;;;4950508;29;20099;-74
2022/10/31 02:31:28;;;;;;;51.13;34.20;;;8.40;99.90;;;;;;4940558;29;20028;-75
2022/10/31 02:34:00;;;;;;;53.80;35.55;;;8.40;99.90;;;;;;4935006;29;20060;-74
2022/10/31 02:36:33;;;;;;;54.75;35.72;;;8.40;99.90;;;;;;4926434;29;20492;-76
2022/10/31 02:39:12;;;;;;;57.83;38.60;;;8.30;99.90;;;;;;4947558;29;20075;-74
2022/10/31 02:41:50;;;;;;;61.00;38.28;;;8.30;99.90;;;;;;4933195;29;20048;-76
2022/10/31 02:44:28;;;;;;;56.80;37.80;;;8.20;99.90;;;;;;4935271;29;20122;-76
2022/10/31 02:47:02;;;;;;;61.55;39.20;;;8.20;99.90;;;;;;4934030;29;20044;-76
2022/10/31 02:49:36;;;;;;;56.08;37.78;;;8.20;99.90;;;;;;4934163;29;20550;-77
2022/10/31 02:52:03;;;;;;;58.90;39.55;;;8.30;99.90;;;;;;4933688;29;20099;-77
2022/10/31 02:54:32;;;;;;;54.78;37.10;;;8.30;99.90;;;;;;4935920;29;20050;-76
2022/10/31 02:57:04;;;;;;;55.05;35.67;;;8.20;99.90;;;;;;4936573;29;20664;-75
2022/10/31 02:59:34;;;;;;;57.80;36.42;;;8.20;99.90;;;;;;4937353;29;20052;-76
2022/10/31 03:02:13;;;;;;;56.13;36.63;;;8.20;99.90;;;;;;4932980;29;20044;-76
2022/10/31 03:05:15;;;;;;;59.85;38.03;;;8.10;99.90;;;;;;4934908;29;20123;-76
2022/10/31 03:07:52;;;;;;;54.95;36.67;;;8.10;99.90;;;;;;4934393;29;20052;-75
2022/10/31 03:10:29;;;;;;;60.72;37.78;;;8.10;99.90;;;;;;4946862;29;20036;-75
2022/10/31 03:13:04;;;;;;;54.97;38.25;;;8.10;99.90;;;;;;4958627;29;20051;-74
2022/10/31 03:15:35;;;;;;;57.08;37.65;;;8.10;99.90;;;;;;4934620;29;20052;-76
2022/10/31 03:18:08;;;;;;;53.17;35.85;;;8.10;99.90;;;;;;4933384;29;20051;-76
2022/10/31 03:20:39;;;;;;;49.58;35.90;;;8.10;99.90;;;;;;4933336;29;20047;-76
2022/10/31 03:23:10;;;;;;;55.50;34.30;;;8.10;99.90;;;;;;4933350;29;20051;-76
2022/10/31 03:25:38;;;;;;;50.70;34.53;;;8.10;99.90;;;;;;4934685;29;20050;-75
2022/10/31 03:28:07;;;;;;;46.95;31.48;;;8.10;99.90;;;;;;4932967;29;20506;-74
2022/10/31 03:30:38;;;;;;;54.33;32.97;;;8.10;99.90;;;;;;4933505;29;20142;-75
2022/10/31 03:33:12;;;;;;;47.08;30.95;;;8.00;99.90;;;;;;4933636;29;20177;-75
2022/10/31 03:35:43;;;;;;;46.08;30.70;;;8.00;99.90;;;;;;4934548;29;20079;-74
2022/10/31 03:38:12;;;;;;;44.22;30.75;;;8.00;99.90;;;;;;4933256;29;20036;-75
2022/10/31 03:40:44;;;;;;;50.13;33.80;;;7.90;99.90;;;;;;4932832;29;20563;-76
2022/10/31 03:43:18;;;;;;;49.88;33.72;;;7.90;99.90;;;;;;4933442;29;20075;-76
2022/10/31 03:45:48;;;;;;;54.35;35.17;;;7.90;99.90;;;;;;4936635;29;20142;-75
2022/10/31 03:48:19;;;;;;;55.53;33.38;;;7.90;99.90;;;;;;4936455;29;20180;-76
2022/10/31 03:50:53;;;;;;;46.78;32.28;;;7.90;99.90;;;;;;4938026;29;20126;-74
2022/10/31 03:53:26;;;;;;;48.72;30.40;;;7.90;99.90;;;;;;4936844;29;20131;-74
2022/10/31 03:55:59;;;;;;;47.90;31.55;;;7.90;99.90;;;;;;4937070;29;20082;-73
2022/10/31 03:58:32;;;;;;;49.85;33.97;;;8.00;99.90;;;;;;4936489;29;20052;-75
2022/10/31 04:01:03;;;;;;;49.70;34.03;;;8.00;99.90;;;;;;4936648;29;20075;-77
2022/10/31 04:03:34;;;;;;;50.70;33.33;;;7.90;99.90;;;;;;4937524;29;20043;-74
2022/10/31 04:06:07;;;;;;;46.50;33.75;;;7.90;99.90;;;;;;4934745;29;20091;-75
2022/10/31 04:08:42;;;;;;;49.20;33.45;;;7.90;99.90;;;;;;4940055;29;20055;-75
2022/10/31 04:11:14;;;;;;;49.00;33.58;;;7.90;99.90;;;;;;4938473;29;20052;-74
2022/10/31 04:13:45;;;;;;;50.60;33.95;;;8.00;99.90;;;;;;4917124;29;20076;-74
2022/10/31 04:16:20;;;;;;;49.55;34.05;;;7.90;99.90;;;;;;4926564;29;20106;-76
2022/10/31 04:18:48;;;;;;;47.33;34.10;;;7.90;99.90;;;;;;4935143;29;20058;-75
2022/10/31 04:21:17;;;;;;;47.05;33.85;;;7.90;99.90;;;;;;4935597;29;20452;-76
2022/10/31 04:23:44;;;;;;;47.22;31.05;;;7.90;99.90;;;;;;4936060;29;20035;-77
2022/10/31 04:26:19;;;;;;;51.20;32.45;;;7.90;99.90;;;;;;4936319;29;20044;-76
2022/10/31 04:28:47;;;;;;;47.40;31.60;;;7.80;99.90;;;;;;4936378;29;20059;-74
2022/10/31 04:31:15;;;;;;;41.40;30.17;;;7.80;99.90;;;;;;4935514;29;20054;-73
2022/10/31 04:33:44;;;;;;;47.63;32.22;;;7.80;99.90;;;;;;4938114;29;20036;-73
2022/10/31 04:36:14;;;;;;;49.90;33.53;;;7.80;99.90;;;;;;4936517;29;20052;-73
2022/10/31 04:38:42;;;;;;;53.20;35.63;;;7.80;99.90;;;;;;4936268;29;20055;-72
2022/10/31 04:41:22;;;;;;;57.60;40.22;;;7.70;99.90;;;;;;4935839;29;20047;-73
2022/10/31 04:43:55;;;;;;;53.95;37.40;;;7.70;99.90;;;;;;4935972;29;20071;-73
2022/10/31 04:46:23;;;;;;;50.80;34.70;;;7.70;99.90;;;;;;4935511;29;20048;-74
2022/10/31 04:48:51;;;;;;;55.10;36.90;;;7.70;99.90;;;;;;4935247;29;20123;-75
2022/10/31 04:51:19;;;;;;;53.85;35.63;;;7.60;99.90;;;;;;4933766;29;20111;-74
2022/10/31 04:53:47;;;;;;;51.38;35.95;;;7.60;99.90;;;;;;4936651;29;20067;-73
2022/10/31 04:56:43;;;;;;;54.50;35.55;;;7.60;99.90;;;;;;4935378;29;20080;-73
2022/10/31 04:59:15;;;;;;;53.75;35.80;;;7.60;99.90;;;;;;4949221;29;20143;-74
2022/10/31 05:01:50;;;;;;;55.47;36.50;;;7.70;99.90;;;;;;4935011;29;20075;-76
2022/10/31 05:04:22;;;;;;;52.80;35.83;;;7.70;99.90;;;;;;4934986;29;20044;-75
2022/10/31 05:06:51;;;;;;;49.50;35.30;;;7.70;99.90;;;;;;4935890;29;20468;-75
2022/10/31 05:09:18;;;;;;;51.75;34.38;;;7.70;99.90;;;;;;4935858;29;20143;-74
2022/10/31 05:11:46;;;;;;;48.20;32.38;;;7.70;99.90;;;;;;4936481;29;20444;-75
2022/10/31 05:14:33;;;;;;;50.40;33.15;;;7.70;99.90;;;;;;4936720;28;20047;-75
2022/10/31 05:17:33;;;;;;;51.05;35.55;;;7.70;99.90;;;;;;4904310;29;20094;-76
2022/10/31 05:20:21;;;;;;;57.03;37.03;;;7.70;99.90;;;;;;4935265;29;20054;-75
2022/10/31 05:23:25;;;;;;;53.92;35.75;;;7.60;99.90;;;;;;4933624;29;20050;-75
2022/10/31 05:25:53;;;;;;;49.97;33.67;;;7.70;99.90;;;;;;4937739;29;20138;-75
2022/10/31 05:28:20;;;;;;;49.80;30.75;;;7.70;99.90;;;;;;4937966;29;20043;-77
2022/10/31 05:30:48;;;;;;;47.95;31.83;;;7.60;99.90;;;;;;4938303;29;20135;-76
2022/10/31 05:33:17;;;;;;;54.58;33.92;;;7.60;99.90;;;;;;4938083;29;20534;-74
2022/10/31 05:36:03;;;;;;;69.05;35.88;;;7.60;99.90;;;;;;4939553;29;20413;-76
2022/10/31 05:38:57;;;;;;;74.07;38.15;;;7.60;99.90;;;;;;4935682;29;20102;-75
2022/10/31 05:41:27;;;;;;;55.95;37.58;;;7.60;99.90;;;;;;4946036;29;20452;-74
2022/10/31 05:44:03;;;;;;;53.63;36.28;;;7.60;99.90;;;;;;4945138;29;20055;-76
2022/10/31 05:46:34;;;;;;;64.68;39.47;;;7.70;99.90;;;;;;4943353;29;20052;-74
2022/10/31 05:49:23;;;;;;;66.18;39.70;;;7.80;99.90;;;;;;4945488;29;20059;-75
2022/10/31 05:52:09;;;;;;;61.80;40.17;;;7.80;99.90;;;;;;4944244;29;20058;-74
2022/10/31 05:54:45;;;;;;;61.47;38.45;;;7.90;99.90;;;;;;4939878;29;20050;-77
2022/10/31 05:57:13;;;;;;;56.05;37.72;;;7.90;99.90;;;;;;4946018;29;20127;-74
2022/10/31 05:59:41;;;;;;;89.45;42.83;;;7.90;99.90;;;;;;4930797;29;20054;-75
2022/10/31 06:02:08;;;;;;;65.32;41.15;;;8.00;99.90;;;;;;4936798;29;20068;-75
2022/10/31 06:04:55;;;;;;;70.60;44.20;;;7.90;99.90;;;;;;4899388;29;20059;-74
2022/10/31 06:07:24;;;;;;;66.57;43.33;;;7.90;99.90;;;;;;4939934;29;20043;-73
2022/10/31 06:09:52;;;;;;;61.72;42.10;;;8.00;99.90;;;;;;4939504;29;20044;-73
2022/10/31 06:12:21;;;;;;;65.35;40.17;;;8.10;99.90;;;;;;4941927;29;20467;-77
2022/10/31 06:15:08;;;;;;;69.32;45.03;;;8.20;99.90;;;;;;4950423;28;20073;-75
2022/10/31 06:17:36;;;;;;;69.90;43.13;;;8.30;99.90;;;;;;4962966;28;20146;-75
2022/10/31 06:20:26;;;;;;;71.28;44.60;;;8.30;99.90;;;;;;4965149;28;20050;-75
2022/10/31 06:23:04;;;;;;;70.50;45.50;;;8.40;99.90;;;;;;4967597;28;20043;-75
2022/10/31 06:25:35;;;;;;;77.32;46.90;;;8.50;99.90;;;;;;4965063;28;20049;-73
2022/10/31 06:28:05;;;;;;;67.80;43.90;;;8.60;99.90;;;;;;4964350;28;20510;-74
2022/10/31 06:30:47;;;;;;;73.00;44.17;;;8.70;99.90;;;;;;4956510;28;20045;-76
2022/10/31 06:33:16;;;;;;;64.75;41.03;;;8.80;99.90;;;;;;4958041;28;20043;-73
2022/10/31 06:35:52;;;;;;;55.85;38.80;;;9.00;99.90;;;;;;4963263;28;20137;-74
2022/10/31 06:38:20;;;;;;;52.75;36.85;;;9.20;99.90;;;;;;4970057;28;20142;-74
2022/10/31 06:40:48;;;;;;;58.80;37.42;;;9.30;99.90;;;;;;4970898;28;20070;-73
2022/10/31 06:43:24;;;;;;;55.22;35.97;;;9.30;99.90;;;;;;4959929;28;20502;-74
2022/10/31 06:46:05;;;;;;;54.53;36.03;;;9.50;99.90;;;;;;4957419;28;20047;-74
2022/10/31 06:48:36;;;;;;;57.83;39.50;;;9.60;99.90;;;;;;4956226;28;20070;-75
2022/10/31 06:51:19;;;;;;;63.85;39.65;;;9.70;99.90;;;;;;4956271;28;20410;-75
2022/10/31 06:53:46;;;;;;;68.35;42.40;;;10.00;99.90;;;;;;4956834;28;20042;-75
2022/10/31 06:56:18;;;;;;;69.97;47.28;;;10.20;99.90;;;;;;4958788;28;20066;-73
2022/10/31 06:58:49;;;;;;;65.43;38.75;;;10.30;99.90;;;;;;4958536;28;20066;-74
2022/10/31 07:01:20;;;;;;;57.53;39.15;;;10.50;99.90;;;;;;4956271;28;20039;-74
2022/10/31 07:03:49;;;;;;;62.80;38.50;;;10.60;99.90;;;;;;4956160;28;20054;-73
2022/10/31 07:06:16;;;;;;;60.15;36.78;;;10.80;99.90;;;;;;4955652;28;20065;-74
2022/10/31 07:08:44;;;;;;;58.80;35.80;;;11.00;99.90;;;;;;4956543;28;20047;-75
2022/10/31 07:11:11;;;;;;;53.80;35.13;;;11.20;99.90;;;;;;4960776;28;20069;-74
2022/10/31 07:13:41;;;;;;;63.13;37.45;;;11.30;99.90;;;;;;4972492;28;20027;-75
2022/10/31 07:16:11;;;;;;;60.67;38.67;;;11.40;99.90;;;;;;4974329;28;20059;-75
2022/10/31 07:18:39;;;;;;;69.50;40.50;;;11.60;99.90;;;;;;4968945;28;20419;-73
2022/10/31 07:21:07;;;;;;;65.10;39.65;;;11.70;99.90;;;;;;4955450;28;20059;-73
2022/10/31 07:23:34;;;;;;;58.17;38.92;;;11.90;99.90;;;;;;4956003;28;20066;-76
2022/10/31 07:26:34;;;;;;;54.75;38.88;;;12.10;99.90;;;;;;4950709;28;20142;-73
2022/10/31 07:29:04;;;;;;;66.78;41.08;;;12.30;99.90;;;;;;4956273;28;20070;-73
2022/10/31 07:31:32;;;;;;;75.00;41.20;;;12.50;99.90;;;;;;4955174;28;20047;-74
2022/10/31 07:34:05;;;;;;;64.72;39.47;;;12.70;99.90;;;;;;4956181;28;20105;-74
2022/10/31 07:36:32;;;;;;;73.55;45.45;;;12.90;99.90;;;;;;4973179;28;20121;-73
2022/10/31 07:39:04;;;;;;;69.22;44.17;;;13.10;99.90;;;;;;4959223;28;20113;-74
2022/10/31 07:41:34;;;;;;;62.30;41.70;;;13.40;99.90;;;;;;4971701;28;20134;-74
2022/10/31 07:44:03;;;;;;;65.03;41.22;;;13.50;99.90;;;;;;4961638;28;20214;-75
2022/10/31 07:46:52;;;;;;;59.33;39.58;;;13.60;99.90;;;;;;4972533;28;20196;-73
2022/10/31 07:49:45;;;;;;;56.00;36.70;;;13.70;99.90;;;;;;4974255;28;20057;-75
2022/10/31 07:52:32;;;;;;;54.95;36.92;;;13.70;99.90;;;;;;4974821;28;20117;-73
2022/10/31 07:55:31;;;;;;;53.40;35.05;;;13.80;99.90;;;;;;4940123;28;20135;-74
2022/10/31 07:58:01;;;;;;;61.75;39.63;;;13.80;99.90;;;;;;4955392;28;20051;-73
2022/10/31 08:00:31;;;;;;;53.97;35.03;;;13.90;99.90;;;;;;4954789;28;20458;-74
2022/10/31 08:03:00;;;;;;;55.13;33.40;;;14.00;99.90;;;;;;4955495;28;20057;-75
2022/10/31 08:05:47;;;;;;;53.17;31.85;;;14.10;99.90;;;;;;4985791;28;20058;-74
2022/10/31 08:08:43;;;;;;;46.30;31.33;;;14.20;99.90;;;;;;4965254;28;20061;-75
2022/10/31 08:11:10;;;;;;;42.47;28.75;;;14.40;99.90;;;;;;4977837;28;20038;-75
2022/10/31 08:13:40;;;;;;;48.28;30.20;;;14.50;99.90;;;;;;4977614;28;20039;-75
2022/10/31 08:16:09;;;;;;;45.13;31.42;;;14.60;99.90;;;;;;4978456;28;20034;-75
2022/10/31 08:18:43;;;;;;;48.35;32.88;;;14.80;99.90;;;;;;4974675;28;20051;-76
2022/10/31 08:21:14;;;;;;;48.33;33.78;;;15.00;99.90;;;;;;4975362;28;20089;-75
2022/10/31 08:23:43;;;;;;;54.67;36.95;;;15.10;99.90;;;;;;4977822;28;20102;-75
2022/10/31 08:26:11;;;;;;;56.17;35.72;;;15.20;99.90;;;;;;4973686;28;20146;-74
2022/10/31 08:28:38;;;;;;;66.25;43.28;;;15.30;99.90;;;;;;4956440;28;20190;-73
2022/10/31 08:31:09;;;;;;;66.78;45.17;;;15.50;99.90;;;;;;4954965;28;20114;-75
2022/10/31 08:33:40;;;;;;;70.55;44.60;;;15.60;99.90;;;;;;4973111;28;20487;-75
2022/10/31 08:36:13;;;;;;;59.33;38.03;;;15.80;99.90;;;;;;4973446;28;20039;-74
2022/10/31 08:39:06;;;;;;;51.75;33.53;;;15.90;99.90;;;;;;4954489;28;20043;-76
2022/10/31 08:41:35;;;;;;;56.85;33.25;;;16.00;99.90;;;;;;4956252;28;20042;-74
2022/10/31 08:44:02;;;;;;;53.90;33.30;;;16.10;99.90;;;;;;4958451;28;20069;-76
2022/10/31 08:46:31;;;;;;;52.05;32.50;;;16.30;99.90;;;;;;4957826;28;20082;-75
2022/10/31 08:48:59;;;;;;;47.72;32.20;;;16.40;99.90;;;;;;4961140;28;20538;-76
2022/10/31 08:51:26;;;;;;;53.72;34.20;;;16.60;99.90;;;;;;4971206;28;20050;-75
2022/10/31 08:53:56;;;;;;;63.28;37.38;;;16.70;99.90;;;;;;4955792;28;20054;-75
2022/10/31 08:57:01;;;;;;;82.53;52.30;;;16.80;99.90;;;;;;4935177;29;20395;-76
2022/10/31 08:59:36;;;;;;;123.72;75.93;;;17.00;99.90;;;;;;4934971;29;20055;-75
2022/10/31 09:02:34;;;;;;;128.05;76.30;;;17.10;99.90;;;;;;4956874;28;20122;-76
2022/10/31 09:05:02;;;;;;;112.30;71.28;;;17.20;99.90;;;;;;4954769;28;20047;-76
2022/10/31 09:07:30;;;;;;;112.93;68.85;;;17.30;99.90;;;;;;4958548;28;20105;-75
2022/10/31 09:09:59;;;;;;;114.32;72.85;;;17.50;99.90;;;;;;4968408;28;20042;-75
2022/10/31 09:12:28;;;;;;;127.85;77.55;;;17.50;99.90;;;;;;4975701;28;20053;-76
2022/10/31 09:15:14;;;;;;;121.72;76.38;;;17.60;99.90;;;;;;4961377;28;20054;-75
2022/10/31 09:17:50;;;;;;;135.02;84.80;;;17.70;99.90;;;;;;4958698;28;20533;-75
2022/10/31 09:20:29;;;;;;;139.93;88.38;;;17.80;99.90;;;;;;4958407;28;20553;-76
2022/10/31 09:22:57;;;;;;;129.82;85.28;;;18.00;99.90;;;;;;4957488;28;20047;-73
2022/10/31 09:25:25;;;;;;;129.93;84.22;;;18.00;99.90;;;;;;4957776;28;20550;-73
2022/10/31 09:28:12;;;;;;;147.18;94.38;;;18.10;99.90;;;;;;4957997;28;20087;-77
2022/10/31 09:30:40;;;;;;;173.15;110.15;;;18.20;99.90;;;;;;4956897;28;20133;-74
2022/10/31 09:33:12;;;;;;;209.23;134.88;;;18.30;99.90;;;;;;4958156;28;20039;-73
2022/10/31 09:35:43;;;;;;;240.25;151.88;;;18.50;99.90;;;;;;4958037;28;20081;-75
2022/10/31 09:38:12;;;;;;;260.25;159.20;;;18.50;99.90;;;;;;4956491;28;20498;-74
2022/10/31 09:40:41;;;;;;;264.98;171.05;;;18.60;99.90;;;;;;4957095;28;20149;-75
2022/10/31 09:43:22;;;;;;;291.05;183.25;;;18.70;99.90;;;;;;4974200;28;20046;-75
2022/10/31 09:45:59;;;;;;;286.98;189.40;;;18.80;99.90;;;;;;4956527;28;20410;-75
2022/10/31 09:48:59;;;;;;;282.05;188.13;;;18.80;99.90;;;;;;4956261;28;20047;-76
2022/10/31 09:51:44;;;;;;;285.90;187.93;;;19.00;99.90;;;;;;4937515;29;20083;-72
2022/10/31 09:54:19;;;;;;;277.08;182.52;;;19.10;99.90;;;;;;4946793;28;20078;-74
2022/10/31 09:56:46;;;;;;;266.63;169.32;;;19.20;99.90;;;;;;4974856;28;20038;-74
2022/10/31 09:59:20;;;;;;;243.35;156.75;;;19.30;99.90;;;;;;4946950;29;20051;-73
2022/10/31 10:01:50;;;;;;;220.73;146.48;;;19.40;99.90;;;;;;4937810;29;20040;-73
2022/10/31 10:04:34;;;;;;;191.45;122.45;;;19.50;99.90;;;;;;4937903;28;20051;-73
2022/10/31 10:07:17;;;;;;;172.95;112.03;;;19.60;99.90;;;;;;4943414;28;20078;-74
2022/10/31 10:09:45;;;;;;;;;;;19.70;99.90;;;;;;4973914;28;20050;-76
2022/10/31 10:12:57;;;;;;;132.80;85.35;;;19.80;99.00;;;;;;4963745;28;19978;-74
2022/10/31 10:15:47;;;;;;;124.50;78.40;;;20.00;97.40;;;;;;4974098;28;20099;-75
2022/10/31 10:18:26;;;;;;;117.57;73.43;;;20.00;96.40;;;;;;4963201;28;20503;-76
2022/10/31 10:21:05;;;;;;;111.72;71.97;;;20.20;95.70;;;;;;4991276;28;20316;-73
2022/10/31 10:23:48;;;;;;;101.28;63.35;;;20.30;95.50;;;;;;4977566;28;20094;-73
2022/10/31 10:26:21;;;;;;;87.28;55.03;;;20.30;94.40;;;;;;4970942;28;20473;-74
2022/10/31 10:28:53;;;;;;;79.65;48.28;;;20.40;93.40;;;;;;4974895;28;20114;-75
2022/10/31 10:31:24;;;;;;;69.13;42.30;;;20.60;92.40;;;;;;4970692;28;20122;-73
2022/10/31 10:34:03;;;;;;;53.53;34.00;;;20.60;91.50;;;;;;4975047;28;20050;-74
2022/10/31 10:36:38;;;;;;;56.75;36.97;;;20.70;87.00;;;;;;4971542;28;20061;-72
2022/10/31 10:39:14;;;;;;;66.40;36.17;;;20.80;85.90;;;;;;4954413;28;20071;-74
2022/10/31 10:41:45;;;;;;;56.25;33.53;;;21.00;85.70;;;;;;4970042;28;20483;-74
2022/10/31 10:44:11;;;;;;;49.67;30.63;;;21.10;84.40;;;;;;4971145;28;20137;-73
2022/10/31 10:49:36;;;;;;;25.92;12.77;;;21.20;80.10;;;;;;4950623;28;20042;-75
2022/10/31 10:52:19;;;;;;;30.25;16.92;;;21.40;74.50;;;;;;4949997;28;20044;-73
2022/10/31 10:55:04;;;;;;;31.33;19.73;;;21.50;73.90;;;;;;4971564;28;20039;-75
2022/10/31 10:57:47;;;;;;;27.50;16.13;;;21.50;74.50;;;;;;4971540;28;20450;-74
2022/10/31 11:00:19;;;;;;;31.17;16.15;;;21.60;72.50;;;;;;4971811;28;20073;-73
2022/10/31 11:02:47;;;;;;;29.10;14.85;;;21.60;73.60;;;;;;4971629;28;20466;-74
2022/10/31 11:05:21;;;;;;;24.02;13.63;;;21.70;70.90;;;;;;4972321;28;20043;-74
2022/10/31 11:07:49;;;;;;;27.23;12.95;;;21.80;70.20;;;;;;4971108;28;20494;-75
2022/10/31 11:10:18;;;;;;;24.20;12.88;;;21.80;70.00;;;;;;4970336;28;20111;-73
2022/10/31 11:12:57;;;;;;;23.35;12.63;;;21.90;69.60;;;;;;4970549;28;20097;-75
2022/10/31 11:15:27;;;;;;;28.60;11.10;;;22.00;68.90;;;;;;4971442;28;20069;-76
2022/10/31 11:17:57;;;;;;;25.73;11.90;;;22.00;67.00;;;;;;4952724;28;20050;-75
2022/10/31 11:20:31;;;;;;;26.27;13.88;;;22.10;65.50;;;;;;4953134;28;20043;-73
2022/10/31 11:23:19;;;;;;;31.73;17.20;;;22.10;66.10;;;;;;4970741;28;20043;-75
2022/10/31 11:25:51;;;;;;;35.10;20.60;;;22.20;66.60;;;;;;4972405;28;20058;-73
2022/10/31 11:28:19;;;;;;;35.63;21.58;;;22.30;67.50;;;;;;4970290;28;20042;-75
2022/10/31 11:30:48;;;;;;;40.50;22.52;;;22.30;67.20;;;;;;4970693;28;20406;-74
2022/10/31 11:33:20;;;;;;;53.33;31.60;;;22.40;66.00;;;;;;4971221;28;20043;-73
2022/10/31 11:35:49;;;;;;;57.25;33.72;;;22.40;64.40;;;;;;4970825;28;20252;-75
2022/10/31 11:38:21;;;;;;;49.97;28.67;;;22.50;63.40;;;;;;4965293;28;20049;-74
2022/10/31 11:40:57;;;;;;;46.20;26.90;;;22.60;62.10;;;;;;4972565;28;20058;-77
2022/10/31 11:43:25;;;;;;;48.55;27.73;;;22.60;63.10;;;;;;4975313;28;20046;-76
2022/10/31 11:45:53;;;;;;;51.78;30.00;;;22.70;63.00;;;;;;4971698;28;20054;-75
2022/10/31 11:48:22;;;;;;;44.22;22.85;;;22.70;62.10;;;;;;4971381;28;20053;-76
2022/10/31 11:50:53;;;;;;;49.58;29.20;;;22.80;58.90;;;;;;4972006;28;20049;-77
2022/10/31 11:53:28;;;;;;;59.78;30.55;;;22.80;60.80;;;;;;4955871;28;20043;-75
2022/10/31 11:56:06;;;;;;;48.03;30.40;;;22.90;62.10;;;;;;4970575;28;20097;-81
2022/10/31 11:58:33;;;;;;;59.30;34.33;;;23.00;59.50;;;;;;4970368;28;20043;-76
2022/10/31 12:01:00;;;;;;;69.20;36.60;;;23.00;59.40;;;;;;4970515;28;20127;-76
2022/10/31 12:03:38;;;;;;;58.88;31.45;;;23.00;59.70;;;;;;4971259;28;20053;-75
2022/10/31 12:06:11;;;;;;;65.65;35.28;;;23.00;58.80;;;;;;4953601;28;20049;-75
2022/10/31 12:08:42;;;;;;;69.88;41.00;;;23.10;58.70;;;;;;4968843;28;20181;-75
2022/10/31 12:11:19;;;;;;;67.80;41.03;;;23.20;61.00;;;;;;4970044;28;20047;-77
2022/10/31 12:13:57;;;;;;;75.20;43.67;;;23.20;61.30;;;;;;4952634;28;20050;-77
2022/10/31 12:16:30;;;;;;;83.47;47.80;;;23.20;60.60;;;;;;4952244;28;20054;-76
2022/10/31 12:19:01;;;;;;;79.75;45.78;;;23.30;61.60;;;;;;4970578;28;20491;-77
2022/10/31 12:21:45;;;;;;;85.00;49.08;;;23.30;62.70;;;;;;4969916;28;20038;-77
2022/10/31 12:24:25;;;;;;;82.93;47.13;;;23.30;62.80;;;;;;4970593;28;20046;-77
2022/10/31 12:27:03;;;;;;;79.53;45.55;;;23.40;61.50;;;;;;4970883;28;20035;-77
2022/10/31 12:29:49;;;;;;;72.88;46.45;;;23.40;61.40;;;;;;4972405;28;20125;-79
2022/10/31 12:32:28;;;;;;;84.82;50.28;;;23.40;61.50;;;;;;4973880;28;20042;-77
2022/10/31 12:35:23;;;;;;;91.05;53.28;;;23.40;62.10;;;;;;4973662;28;20050;-76
2022/10/31 12:38:06;;;;;;;99.50;58.70;;;23.40;63.40;;;;;;4924614;28;20061;-77
2022/10/31 12:40:48;;;;;;;100.80;61.85;;;23.50;64.20;;;;;;4973662;28;20043;-78
2022/10/31 12:43:34;;;;;;;100.97;62.33;;;23.60;63.40;;;;;;4973332;28;20047;-77
2022/10/31 12:46:03;;;;;;;125.93;84.38;;;23.60;64.40;;;;;;4974172;28;20447;-77
2022/10/31 12:48:44;;;;;;;114.07;70.03;;;23.60;64.50;;;;;;4974290;28;20047;-77
2022/10/31 12:51:18;;;;;;;121.00;79.78;;;23.70;65.40;;;;;;4973809;28;20406;-76
2022/10/31 12:53:58;;;;;;;108.10;68.10;;;23.70;65.90;;;;;;4973349;28;20066;-77
2022/10/31 12:56:38;;;;;;;101.93;69.78;;;23.70;65.80;;;;;;4982285;28;20034;-77
2022/10/31 12:59:11;;;;;;;105.18;60.60;;;23.70;65.40;;;;;;4988239;28;20143;-76
2022/10/31 13:01:44;;;;;;;114.20;65.57;;;23.70;63.30;;;;;;5000445;28;20107;-75
2022/10/31 13:04:18;;;;;;;120.78;78.25;;;23.70;64.90;;;;;;4984550;28;20082;-77
2022/10/31 13:06:51;;;;;;;120.13;79.60;;;23.70;66.20;;;;;;4980524;28;20050;-76